createdAt,value
2022-12-08T00:01:32.556Z,70.42
2022-12-08T00:04:02.288Z,69.61
2022-12-08T00:06:53.354Z,68.88
2022-12-08T00:09:41.069Z,68.86
2022-12-08T00:12:16.666Z,67.90
2022-12-08T00:14:47.574Z,68.64
2022-12-08T00:17:16.525Z,69.88
2022-12-08T00:19:45.040Z,67.71
2022-12-08T00:22:14.728Z,68.66
2022-12-08T00:24:45.563Z,68.65
2022-12-08T00:27:15.747Z,68.95
2022-12-08T00:29:45.266Z,68.09
2022-12-08T00:32:13.767Z,67.55
2022-12-08T00:34:41.375Z,68.42
2022-12-08T00:37:08.953Z,68.09
2022-12-08T00:39:36.926Z,66.54
2022-12-08T00:42:13.510Z,68.25
2022-12-08T00:44:43.018Z,68.04
2022-12-08T00:47:11.473Z,68.10
2022-12-08T00:49:39.132Z,67.79
2022-12-08T00:52:07.177Z,67.49
2022-12-08T00:54:34.948Z,68.32
2022-12-08T00:57:02.799Z,67.15
2022-12-08T00:59:30.655Z,67.84
2022-12-08T01:01:58.347Z,67.58
2022-12-08T01:04:26.231Z,66.79
2022-12-08T01:06:54.011Z,67.56
2022-12-08T01:09:21.713Z,67.36
2022-12-08T01:11:49.272Z,67.90
2022-12-08T01:14:17.060Z,68.71
2022-12-08T01:16:45.024Z,67.19
2022-12-08T01:19:14.464Z,66.29
2022-12-08T01:21:43.375Z,66.03
2022-12-08T01:24:16.420Z,66.58
2022-12-08T01:26:45.290Z,66.90
2022-12-08T01:29:13.291Z,66.90
2022-12-08T01:31:40.968Z,67.75
2022-12-08T01:34:08.829Z,68.43
2022-12-08T01:36:37.303Z,68.55
2022-12-08T01:39:08.034Z,68.55
2022-12-08T01:41:38.010Z,67.93
2022-12-08T01:44:08.492Z,70.09
2022-12-08T01:46:38.644Z,69.03
2022-12-08T01:49:21.031Z,70.81
2022-12-08T01:52:18.424Z,68.48
2022-12-08T01:54:53.713Z,67.68
2022-12-08T01:57:30.869Z,68.68
2022-12-08T02:00:14.287Z,67.23
2022-12-08T02:02:47.310Z,67.37
2022-12-08T02:05:16.319Z,67.51
2022-12-08T02:07:44.879Z,67.12
2022-12-08T02:10:16.622Z,68.80
2022-12-08T02:12:44.917Z,70.29
2022-12-08T02:15:12.956Z,70.00
2022-12-08T02:18:00.075Z,70.04
2022-12-08T02:20:38.023Z,70.73
2022-12-08T02:23:05.569Z,68.77
2022-12-08T02:25:47.577Z,67.19
2022-12-08T02:28:47.401Z,66.67
2022-12-08T02:31:35.395Z,66.53
2022-12-08T02:34:09.130Z,66.38
2022-12-08T02:37:01.324Z,66.91
2022-12-08T02:39:35.975Z,67.03
2022-12-08T02:42:35.291Z,67.96
2022-12-08T02:45:11.661Z,69.15
2022-12-08T02:47:40.819Z,68.98
2022-12-08T02:50:09.856Z,68.30
2022-12-08T02:52:43.382Z,67.85
2022-12-08T02:55:19.100Z,67.17
2022-12-08T02:58:20.245Z,67.42
2022-12-08T03:01:06.272Z,67.47
2022-12-08T03:03:45.862Z,68.50
2022-12-08T03:06:44.101Z,69.31
2022-12-08T03:09:29.709Z,68.96
2022-12-08T03:12:18.436Z,69.12
2022-12-08T03:14:50.233Z,69.36
2022-12-08T03:17:21.770Z,68.38
2022-12-08T03:19:50.107Z,68.16
2022-12-08T03:22:22.700Z,68.76
2022-12-08T03:24:51.344Z,68.53
2022-12-08T03:27:29.569Z,68.42
2022-12-08T03:29:59.145Z,67.66
2022-12-08T03:32:40.190Z,69.70
2022-12-08T03:35:15.921Z,69.86
2022-12-08T03:37:44.330Z,69.89
2022-12-08T03:40:15.585Z,70.34
2022-12-08T03:42:43.214Z,70.09
2022-12-08T03:45:11.752Z,70.31
2022-12-08T03:47:39.350Z,70.29
2022-12-08T03:50:07.592Z,69.70
2022-12-08T03:52:35.795Z,69.33
2022-12-08T03:55:03.660Z,69.56
2022-12-08T03:57:31.280Z,68.80
2022-12-08T03:59:59.198Z,68.01
2022-12-08T04:02:26.759Z,67.98
2022-12-08T04:04:54.602Z,67.78
2022-12-08T04:07:22.176Z,67.29
2022-12-08T04:09:49.803Z,66.76
2022-12-08T04:12:17.705Z,67.12
2022-12-08T04:14:45.249Z,69.88
2022-12-08T04:17:12.892Z,69.79
2022-12-08T04:19:41.044Z,69.41
2022-12-08T04:22:08.875Z,68.98
2022-12-08T04:24:36.375Z,68.34
2022-12-08T04:27:04.257Z,68.37
2022-12-08T04:29:31.766Z,69.59
2022-12-08T04:31:59.375Z,69.04
2022-12-08T04:34:27.250Z,67.68
2022-12-08T04:36:54.781Z,66.67
2022-12-08T04:39:22.417Z,66.84
2022-12-08T04:41:50.372Z,67.89
2022-12-08T04:44:17.894Z,67.96
2022-12-08T04:46:45.441Z,66.64
2022-12-08T04:49:13.315Z,66.96
2022-12-08T04:51:40.977Z,69.33
2022-12-08T04:54:08.593Z,67.14
2022-12-08T04:56:36.753Z,67.63
2022-12-08T04:59:04.466Z,67.97
2022-12-08T05:01:32.244Z,69.49
2022-12-08T05:04:00.252Z,68.44
2022-12-08T05:06:27.793Z,68.24
2022-12-08T05:08:56.279Z,68.49
2022-12-08T05:11:24.132Z,67.65
2022-12-08T05:13:51.826Z,67.23
2022-12-08T05:16:19.357Z,68.50
2022-12-08T05:18:47.364Z,66.62
2022-12-08T05:21:14.891Z,65.67
2022-12-08T05:23:42.359Z,65.67
2022-12-08T05:26:10.205Z,65.53
2022-12-08T05:28:42.270Z,65.63
2022-12-08T05:31:15.908Z,66.13
2022-12-08T05:33:44.557Z,67.88
2022-12-08T05:36:14.524Z,68.88
2022-12-08T05:38:42.967Z,68.16
2022-12-08T05:41:14.597Z,67.04
2022-12-08T05:43:42.665Z,66.63
2022-12-08T05:46:11.166Z,66.52
2022-12-08T05:48:39.375Z,66.77
2022-12-08T05:51:17.106Z,67.66
2022-12-08T05:53:44.725Z,67.28
2022-12-08T05:56:12.587Z,67.64
2022-12-08T05:58:40.337Z,67.36
2022-12-08T06:01:08.192Z,68.01
2022-12-08T06:03:36.269Z,68.19
2022-12-08T06:06:04.323Z,68.73
2022-12-08T06:08:31.914Z,69.07
2022-12-08T06:10:59.912Z,70.08
2022-12-08T06:13:27.410Z,69.44
2022-12-08T06:15:55.036Z,68.81
2022-12-08T06:18:22.902Z,70.83
2022-12-08T06:20:50.520Z,69.36
2022-12-08T06:23:18.078Z,68.68
2022-12-08T06:25:45.914Z,68.61
2022-12-08T06:28:13.485Z,69.30
2022-12-08T06:30:41.010Z,69.31
2022-12-08T06:33:08.881Z,69.33
2022-12-08T06:35:37.144Z,68.85
2022-12-08T06:38:04.760Z,68.58
2022-12-08T06:40:32.657Z,69.33
2022-12-08T06:43:00.210Z,69.21
2022-12-08T06:45:27.777Z,69.27
2022-12-08T06:47:55.649Z,69.16
2022-12-08T06:50:23.211Z,69.21
2022-12-08T06:53:02.821Z,69.14
2022-12-08T06:58:21.146Z,70.00
2022-12-08T07:00:49.427Z,70.21
2022-12-08T07:03:17.058Z,69.74
2022-12-08T07:05:44.841Z,69.92
2022-12-08T07:08:12.877Z,69.97
2022-12-08T07:10:40.650Z,70.34
2022-12-08T07:13:08.307Z,70.71
2022-12-08T07:15:36.154Z,71.24
2022-12-08T07:18:03.991Z,71.60
2022-12-08T07:20:32.092Z,71.83
2022-12-08T07:23:00.118Z,72.06
2022-12-08T07:25:27.738Z,72.13
2022-12-08T07:27:55.399Z,72.28
2022-12-08T07:30:23.464Z,72.50
2022-12-08T07:32:50.986Z,72.28
2022-12-08T07:35:18.565Z,72.44
2022-12-08T07:37:46.675Z,72.47
2022-12-08T07:40:15.071Z,72.77
2022-12-08T07:42:42.872Z,72.77
2022-12-08T07:45:10.820Z,72.66
2022-12-08T07:47:38.421Z,73.24
2022-12-08T07:50:07.109Z,72.99
2022-12-08T07:52:35.822Z,73.15
2022-12-08T07:55:03.602Z,73.08
2022-12-08T07:57:31.208Z,73.35
2022-12-08T07:59:59.143Z,73.96
2022-12-08T08:02:26.924Z,74.15
2022-12-08T08:04:54.908Z,73.96
2022-12-08T08:07:22.452Z,74.01
2022-12-08T08:09:50.097Z,74.58
2022-12-08T08:12:33.637Z,74.08
2022-12-08T08:15:01.841Z,74.04
2022-12-08T08:17:30.411Z,73.48
2022-12-08T08:19:58.156Z,74.07
2022-12-08T08:22:26.351Z,74.15
2022-12-08T08:24:54.638Z,74.32
2022-12-08T08:27:22.834Z,74.51
2022-12-08T08:29:50.728Z,74.64
2022-12-08T08:32:19.590Z,74.61
2022-12-08T08:34:47.195Z,74.53
2022-12-08T08:37:14.967Z,74.69
2022-12-08T08:39:43.178Z,74.80
2022-12-08T08:42:10.787Z,74.82
2022-12-08T08:44:39.066Z,74.89
2022-12-08T08:47:07.291Z,74.93
2022-12-08T08:49:35.270Z,74.58
2022-12-08T08:52:04.934Z,74.80
2022-12-08T08:54:33.505Z,74.83
2022-12-08T08:57:02.134Z,75.28
2022-12-08T08:59:29.922Z,75.26
2022-12-08T09:01:57.874Z,75.53
2022-12-08T09:04:26.047Z,75.46
2022-12-08T09:06:53.830Z,75.60
2022-12-08T09:09:21.837Z,75.25
2022-12-08T09:11:49.447Z,75.78
2022-12-08T09:14:17.148Z,75.24
2022-12-08T09:16:45.093Z,75.30
2022-12-08T09:19:12.860Z,75.36
2022-12-08T09:21:40.797Z,75.42
2022-12-08T09:24:15.554Z,75.39
2022-12-08T09:26:44.436Z,75.20
2022-12-08T09:29:14.653Z,73.89
2022-12-08T09:31:42.599Z,74.24
2022-12-08T09:34:12.326Z,74.60
2022-12-08T09:36:40.633Z,74.75
2022-12-08T09:39:08.814Z,75.71
2022-12-08T09:41:48.184Z,75.91
2022-12-08T09:44:34.720Z,75.28
2022-12-08T09:47:05.485Z,75.47
2022-12-08T09:49:58.151Z,75.80
2022-12-08T09:52:31.463Z,75.35
2022-12-08T09:55:04.522Z,74.81
2022-12-08T09:57:32.152Z,75.24
2022-12-08T10:00:04.493Z,75.43
2022-12-08T10:02:32.932Z,75.78
2022-12-08T10:05:01.039Z,75.98
2022-12-08T10:08:08.391Z,76.33
2022-12-08T10:10:57.974Z,75.26
2022-12-08T10:13:36.762Z,75.66
2022-12-08T10:16:39.489Z,75.29
2022-12-08T10:19:21.401Z,75.64
2022-12-08T10:21:50.643Z,75.75
2022-12-08T10:24:41.219Z,75.89
2022-12-08T10:27:12.595Z,75.20
2022-12-08T10:29:41.210Z,74.10
2022-12-08T10:32:17.575Z,73.96
2022-12-08T10:35:08.886Z,73.33
2022-12-08T10:37:37.008Z,72.94
2022-12-08T10:40:10.591Z,71.94
2022-12-08T10:42:41.959Z,71.72
2022-12-08T10:45:17.694Z,71.51
2022-12-08T10:48:06.556Z,71.13
2022-12-08T10:50:35.685Z,69.61
2022-12-08T10:53:09.501Z,70.42
2022-12-08T10:56:09.406Z,70.01
2022-12-08T10:58:42.680Z,69.29
2022-12-08T11:01:18.378Z,70.11
2022-12-08T11:03:46.368Z,70.57
2022-12-08T11:06:20.271Z,70.43
2022-12-08T11:09:23.142Z,69.37
2022-12-08T11:12:06.688Z,69.57
2022-12-08T11:14:43.573Z,68.14
2022-12-08T11:17:33.367Z,69.13
2022-12-08T11:20:10.454Z,68.53
2022-12-08T11:22:43.477Z,67.89
2022-12-08T11:25:24.838Z,68.38
2022-12-08T11:27:56.433Z,68.61
2022-12-08T11:30:38.958Z,67.83
2022-12-08T11:33:22.409Z,67.83
2022-12-08T11:35:55.629Z,68.14
2022-12-08T11:38:25.184Z,68.31
2022-12-08T11:41:08.385Z,67.85
2022-12-08T11:43:46.798Z,68.19
2022-12-08T11:46:26.393Z,69.51
2022-12-08T11:49:06.710Z,68.80
2022-12-08T11:51:39.774Z,68.28
2022-12-08T11:54:26.244Z,69.26
2022-12-08T11:57:03.103Z,68.93
2022-12-08T11:59:41.901Z,68.27
2022-12-08T12:02:19.727Z,67.82
2022-12-08T12:04:50.799Z,68.06
2022-12-08T12:07:39.450Z,67.94
2022-12-08T12:10:21.082Z,68.47
2022-12-08T12:13:07.181Z,68.97
2022-12-08T12:15:47.191Z,69.33
2022-12-08T12:18:27.241Z,70.41
2022-12-08T12:21:10.471Z,69.92
2022-12-08T12:23:54.462Z,72.18
2022-12-08T12:26:25.937Z,69.56
2022-12-08T12:29:00.282Z,70.69
2022-12-08T12:31:41.639Z,70.22
2022-12-08T12:34:21.138Z,70.82
2022-12-08T12:37:10.276Z,71.59
2022-12-08T12:39:53.379Z,71.44
2022-12-08T12:42:36.665Z,72.46
2022-12-08T12:45:22.098Z,72.93
2022-12-08T12:47:56.337Z,73.01
2022-12-08T12:50:33.896Z,73.07
2022-12-08T12:53:20.796Z,73.18
2022-12-08T12:55:55.542Z,73.64
2022-12-08T12:58:32.326Z,73.33
2022-12-08T13:01:15.088Z,73.15
2022-12-08T13:03:51.757Z,72.17
2022-12-08T13:06:32.425Z,71.57
2022-12-08T13:09:00.614Z,71.46
2022-12-08T13:11:28.353Z,71.36
2022-12-08T13:13:56.934Z,70.82
2022-12-08T13:16:27.815Z,71.13
2022-12-08T13:19:03.551Z,70.53
2022-12-08T13:21:36.970Z,70.68
2022-12-08T13:24:10.659Z,70.17
2022-12-08T13:27:02.131Z,69.88
2022-12-08T13:29:30.685Z,69.75
2022-12-08T13:32:01.463Z,69.49
2022-12-08T13:34:38.061Z,69.68
2022-12-08T13:37:18.833Z,69.77
2022-12-08T13:39:58.434Z,68.99
2022-12-08T13:42:44.969Z,68.72
2022-12-08T13:45:33.560Z,68.94
2022-12-08T13:48:23.384Z,68.81
2022-12-08T13:57:26.816Z,69.72
2022-12-08T13:59:59.779Z,68.61
2022-12-08T14:02:35.176Z,68.86
2022-12-08T14:05:23.475Z,68.13
2022-12-08T14:07:55.423Z,67.68
2022-12-08T14:10:29.221Z,67.21
2022-12-08T14:13:03.553Z,66.82
2022-12-08T14:15:38.094Z,66.37
2022-12-08T14:18:21.612Z,66.11
2022-12-08T14:21:21.087Z,66.22
2022-12-08T14:23:48.951Z,66.14
2022-12-08T14:26:18.005Z,66.34
2022-12-08T14:28:45.612Z,66.22
2022-12-08T14:31:14.573Z,66.37
2022-12-08T14:33:43.065Z,67.26
2022-12-08T14:36:20.983Z,67.06
2022-12-08T14:38:52.635Z,67.07
2022-12-08T14:41:25.250Z,67.43
2022-12-08T14:44:01.404Z,67.49
2022-12-08T14:46:29.325Z,67.77
2022-12-08T14:48:58.318Z,67.77
2022-12-08T14:51:31.081Z,68.29
2022-12-08T14:54:02.743Z,68.50
2022-12-08T14:56:36.368Z,68.60
2022-12-08T14:59:06.805Z,68.48
2022-12-08T15:01:35.010Z,68.71
2022-12-08T15:04:18.227Z,68.51
2022-12-08T15:07:05.781Z,68.53
2022-12-08T15:09:43.253Z,69.15
2022-12-08T15:12:14.074Z,69.16
2022-12-08T15:15:14.568Z,69.18
2022-12-08T15:17:44.237Z,69.07
2022-12-08T15:20:35.616Z,69.30
2022-12-08T15:23:04.635Z,69.01
2022-12-08T15:25:32.472Z,69.47
2022-12-08T15:28:02.625Z,70.67
2022-12-08T15:30:31.260Z,70.34
2022-12-08T15:32:59.012Z,70.77
2022-12-08T15:35:26.543Z,70.31
2022-12-08T15:37:54.483Z,70.12
2022-12-08T15:40:27.234Z,70.59
2022-12-08T15:42:55.179Z,71.02
2022-12-08T15:45:31.429Z,71.33
2022-12-08T15:47:59.321Z,71.45
2022-12-08T15:50:27.328Z,71.29
2022-12-08T15:52:54.937Z,71.73
2022-12-08T15:55:28.274Z,71.80
2022-12-08T16:00:53.862Z,72.26
2022-12-08T16:04:13.082Z,72.40
2022-12-08T16:07:12.511Z,72.42
2022-12-08T16:09:31.894Z,72.15
2022-12-08T16:12:21.106Z,72.26
2022-12-08T16:17:37.002Z,73.79
2022-12-08T16:20:15.398Z,74.30
2022-12-08T16:23:13.471Z,74.61
2022-12-08T16:25:52.830Z,74.54
2022-12-08T16:28:52.301Z,74.92
2022-12-08T16:31:13.006Z,74.99
2022-12-08T16:33:42.055Z,75.68
2022-12-08T16:36:10.626Z,75.86
2022-12-08T16:38:38.333Z,75.77
2022-12-08T16:41:31.349Z,76.79
2022-12-08T16:44:03.046Z,76.75
2022-12-08T16:46:31.455Z,76.84
2022-12-08T16:48:59.397Z,76.70
2022-12-08T16:51:27.727Z,76.43
2022-12-08T16:53:57.102Z,76.67
2022-12-08T16:56:30.597Z,76.63
2022-12-08T16:59:02.060Z,76.34
2022-12-08T17:01:31.585Z,77.04
2022-12-08T17:04:31.026Z,76.86
2022-12-08T17:06:47.525Z,76.94
2022-12-08T17:09:15.273Z,76.75
2022-12-08T17:11:43.837Z,76.62
2022-12-08T17:14:13.030Z,76.41
2022-12-08T17:16:41.712Z,76.83
2022-12-08T17:19:13.264Z,76.61
2022-12-08T17:21:41.903Z,76.58
2022-12-08T17:24:09.494Z,76.37
2022-12-08T17:26:39.980Z,76.84
2022-12-08T17:29:07.819Z,75.81
2022-12-08T17:31:35.460Z,75.70
2022-12-08T17:34:05.815Z,75.65
2022-12-08T17:36:33.910Z,75.69
2022-12-08T17:39:02.402Z,76.05
2022-12-08T17:41:30.380Z,75.28
2022-12-08T17:43:58.250Z,75.68
2022-12-08T17:46:26.163Z,76.21
2022-12-08T17:48:54.148Z,75.82
2022-12-08T17:51:22.194Z,75.40
2022-12-08T17:53:49.986Z,75.85
2022-12-08T17:56:21.623Z,75.36
2022-12-08T17:58:54.403Z,75.83
2022-12-08T18:01:24.070Z,75.63
2022-12-08T18:03:52.205Z,75.64
2022-12-08T18:06:20.578Z,75.76
2022-12-08T18:08:48.440Z,75.59
2022-12-08T18:11:19.174Z,75.42
2022-12-08T18:13:48.380Z,75.62
2022-12-08T18:16:19.213Z,75.73
2022-12-08T18:18:47.700Z,75.50
2022-12-08T18:21:23.018Z,75.78
2022-12-08T18:23:51.856Z,75.03
2022-12-08T18:26:20.715Z,75.40
2022-12-08T18:28:48.476Z,75.24
2022-12-08T18:31:19.610Z,75.04
2022-12-08T18:33:48.456Z,75.40
2022-12-08T18:36:20.234Z,75.24
2022-12-08T18:38:48.176Z,75.65
2022-12-08T18:41:20.042Z,75.51
2022-12-08T18:43:48.077Z,75.40
2022-12-08T18:46:17.371Z,75.50
2022-12-08T18:48:48.931Z,75.58
2022-12-08T18:51:19.051Z,74.93
2022-12-08T18:53:47.612Z,74.82
2022-12-08T18:56:35.224Z,74.75
2022-12-08T18:59:06.583Z,74.33
2022-12-08T19:01:36.323Z,74.55
2022-12-08T19:06:56.408Z,74.14
2022-12-08T19:09:26.973Z,74.33
2022-12-08T19:11:55.497Z,74.23
2022-12-08T19:14:28.147Z,74.52
2022-12-08T19:16:57.824Z,75.03
2022-12-08T19:19:27.475Z,75.57
2022-12-08T19:21:56.002Z,77.20
2022-12-08T19:24:25.015Z,76.12
2022-12-08T19:26:53.336Z,75.49
2022-12-08T19:29:21.262Z,75.66
2022-12-08T19:31:49.628Z,77.80
2022-12-08T19:34:17.897Z,76.71
2022-12-08T19:36:45.948Z,76.09
2022-12-08T19:39:37.994Z,75.95
2022-12-08T19:42:32.348Z,78.87
2022-12-08T19:45:14.613Z,77.68
2022-12-08T19:47:43.004Z,77.23
2022-12-08T19:50:32.545Z,76.42
2022-12-08T19:53:01.135Z,76.14
2022-12-08T19:55:29.496Z,76.79
2022-12-08T19:57:57.361Z,77.89
2022-12-08T20:00:25.692Z,78.41
2022-12-08T20:02:54.576Z,78.51
2022-12-08T20:05:22.531Z,77.97
2022-12-08T20:07:50.852Z,77.43
2022-12-08T20:10:22.151Z,77.25
2022-12-08T20:12:50.031Z,78.02
2022-12-08T20:15:17.831Z,78.28
2022-12-08T20:17:46.539Z,78.10
2022-12-08T20:20:15.070Z,78.25
2022-12-08T20:22:42.988Z,78.46
2022-12-08T20:25:13.059Z,78.61
2022-12-08T20:27:41.627Z,77.72
2022-12-08T20:30:16.449Z,77.82
2022-12-08T20:32:45.701Z,77.65
2022-12-08T20:35:14.959Z,77.89
2022-12-08T20:37:43.078Z,78.09
2022-12-08T20:40:11.618Z,77.99
2022-12-08T20:42:39.437Z,78.19
2022-12-08T20:45:09.196Z,77.95
2022-12-08T20:47:37.820Z,78.00
2022-12-08T20:50:07.131Z,78.17
2022-12-08T20:52:35.177Z,78.21
2022-12-08T20:55:04.504Z,78.47
2022-12-08T20:57:33.503Z,78.20
2022-12-08T21:00:02.527Z,79.91
2022-12-08T21:02:30.743Z,78.98
2022-12-08T21:04:58.431Z,78.19
2022-12-08T21:07:26.067Z,78.33
2022-12-08T21:09:54.777Z,77.96
2022-12-08T21:12:22.486Z,77.87
2022-12-08T21:14:50.253Z,77.61
2022-12-08T21:17:18.289Z,77.93
2022-12-08T21:19:46.187Z,80.12
2022-12-08T21:22:14.644Z,78.66
2022-12-08T21:24:42.654Z,78.47
2022-12-08T21:27:10.460Z,78.94
2022-12-08T21:29:39.004Z,78.58
2022-12-08T21:32:07.102Z,78.84
2022-12-08T21:34:35.521Z,79.26
2022-12-08T21:37:03.140Z,79.70
2022-12-08T21:39:31.132Z,80.23
2022-12-08T21:42:27.938Z,79.78
2022-12-08T21:45:00.293Z,80.10
2022-12-08T21:47:28.074Z,79.25
2022-12-08T21:49:55.808Z,79.46
2022-12-08T21:52:23.636Z,78.54
2022-12-08T21:54:51.464Z,77.56
2022-12-08T21:57:19.315Z,76.61
2022-12-08T21:59:47.483Z,76.33
2022-12-08T22:02:20.780Z,77.56
2022-12-08T22:04:50.667Z,77.54
2022-12-08T22:07:19.638Z,78.37
2022-12-08T22:09:47.515Z,78.84
2022-12-08T22:12:16.831Z,77.06
2022-12-08T22:14:44.530Z,76.58
2022-12-08T22:17:12.376Z,77.48
2022-12-08T22:19:40.540Z,76.96
2022-12-08T22:22:08.326Z,77.30
2022-12-08T22:24:35.945Z,77.39
2022-12-08T22:27:04.053Z,77.34
2022-12-08T22:29:31.949Z,79.45
2022-12-08T22:31:59.501Z,78.60
2022-12-08T22:34:27.560Z,79.37
2022-12-08T22:36:55.301Z,79.43
2022-12-08T22:39:22.928Z,79.78
2022-12-08T22:41:50.991Z,80.17
2022-12-08T22:44:23.711Z,79.59
2022-12-08T22:46:51.789Z,79.39
2022-12-08T22:49:19.475Z,78.92
2022-12-08T22:51:46.959Z,80.65
2022-12-08T22:54:14.757Z,79.74
2022-12-08T22:56:42.343Z,80.32
2022-12-08T22:59:10.233Z,80.14
2022-12-08T23:01:38.055Z,77.88
2022-12-08T23:04:06.012Z,81.50
2022-12-08T23:06:33.890Z,80.79
2022-12-08T23:09:02.630Z,80.47
2022-12-08T23:11:31.286Z,81.95
2022-12-08T23:14:00.354Z,84.48
2022-12-08T23:16:29.142Z,82.91
2022-12-08T23:18:57.012Z,83.53
2022-12-08T23:21:24.545Z,84.01
2022-12-08T23:23:52.490Z,84.61
2022-12-08T23:26:25.210Z,84.60
2022-12-08T23:28:54.058Z,84.33
2022-12-08T23:31:22.468Z,83.42
2022-12-08T23:33:50.814Z,84.07
2022-12-08T23:36:20.447Z,84.00
2022-12-08T23:38:48.970Z,84.03
2022-12-08T23:41:17.238Z,85.01
2022-12-08T23:43:47.002Z,85.64
2022-12-08T23:46:16.958Z,86.52
2022-12-08T23:48:46.012Z,86.21
2022-12-08T23:51:14.053Z,87.52
2022-12-08T23:53:42.074Z,87.33
2022-12-08T23:56:12.701Z,85.53
2022-12-08T23:58:41.757Z,85.59
